Terminal Aerodrome Forecast
Issued by NWS Sterling, VA

Current Version | Previous Version | Text Only | Print | Product List | Glossary Off
Versions: 1 2 3 4 5 6 7 8 9 10 11 12 13 14 15 16 17 18 19 20 21 22

000
FTUS41 KLWX 180546
TAFDCA
TAF
KDCA 180546Z 1806/1912 29006KT P6SM FEW070
     FM181500 24010KT P6SM FEW050
     FM182100 22008KT P6SM BKN050
     FM182300 16006KT P6SM OVC050
     FM190700 21004KT P6SM BKN050
     FM191000 26007KT P6SM SCT050 SCT250=

USA.gov is the U.S. government's official web portal to all federal, state and local government web resources and services.